Time;durP1;ratioP1;P1;durP2;ratioP2;P2;SDS_P1;SDS_P2;PMS_P1;PMS_P2;Temp;Humidity;BMP_temperature;BMP_pressure;BME280_temperature;BME280_humidity;BME280_pressure;Samples;Min_cycle;Max_cycle;Signal;HPM_P1;HPM_P2
2022/02/04 10:34:10;;;;;;;3.28;2.03;;;;;;;10.17;62.89;99012.28;5072731;28;20081;-70
2022/02/04 10:39:47;;;;;;;2.85;2.15;;;;;;;9.59;64.19;99003.38;5081449;28;20397;-68
2022/02/04 10:45:05;;;;;;;6.65;2.55;;;;;;;9.10;65.99;99022.78;5081168;28;20039;-68
2022/02/04 11:03:35;;;;;;;4.28;2.60;;;;;;;8.04;70.92;98978.50;5082335;28;20036;-71
2022/02/04 11:08:53;;;;;;;3.80;2.40;;;;;;;8.20;70.56;98957.56;5081972;28;20165;-68
2022/02/04 11:22:00;;;;;;;4.57;2.58;;;;;;;8.18;70.04;98946.28;5081312;28;20590;-68
2022/02/04 11:51:38;;;;;;;4.25;2.55;;;;;;;7.44;74.91;98889.75;5088263;28;20039;-70
2022/02/04 11:57:02;;;;;;;3.10;2.30;;;;;;;7.58;73.84;98882.94;5088235;28;20119;-70
2022/02/04 11:59:38;;;;;;;3.88;2.50;;;;;;;7.70;73.74;98875.31;5089803;28;20028;-70
2022/02/04 12:02:22;;;;;;;;;;;;;;;7.71;73.18;98868.28;5090561;28;20024;-70
2022/02/04 12:04:47;;;;;;;4.32;3.05;;;;;;;7.58;72.22;98864.56;5089366;28;20270;-71
2022/02/04 12:07:50;;;;;;;3.10;2.58;;;;;;;7.65;71.87;98853.69;5089716;28;20081;-70
2022/02/04 12:10:27;;;;;;;4.00;3.08;;;;;;;7.70;72.66;98862.19;5037169;28;20036;-70
2022/02/04 12:12:53;;;;;;;4.43;3.22;;;;;;;7.68;72.35;98864.03;5091253;28;20032;-70
2022/02/04 12:15:42;;;;;;;6.97;3.45;;;;;;;7.71;72.21;98847.28;5089518;28;20040;-70
2022/02/04 12:18:10;;;;;;;3.58;2.40;;;;;;;7.72;72.16;98844.56;5089470;28;20035;-69
2022/02/04 12:20:49;;;;;;;4.13;2.70;;;;;;;7.67;71.50;98840.50;5090060;28;20028;-69
2022/02/04 12:23:32;;;;;;;4.85;3.05;;;;;;;7.67;71.86;98833.47;5089161;28;20552;-69
2022/02/04 12:26:09;;;;;;;3.80;3.00;;;;;;;7.66;72.03;98830.94;5089018;28;20044;-69
2022/02/04 12:29:05;;;;;;;4.65;2.85;;;;;;;7.68;71.63;98829.94;5088346;28;20143;-68
2022/02/04 12:31:33;;;;;;;3.33;2.53;;;;;;;7.62;71.78;98834.66;5087323;28;20040;-70
2022/02/04 12:34:02;;;;;;;4.55;2.90;;;;;;;7.56;72.27;98819.25;5089698;28;20035;-69
2022/02/04 12:36:32;;;;;;;3.78;2.47;;;;;;;7.58;71.87;98807.75;5078167;28;20145;-69
2022/02/04 12:39:05;;;;;;;4.05;2.58;;;;;;;7.61;72.02;98806.75;5088344;28;20047;-70
2022/02/04 12:41:32;;;;;;;3.55;2.28;;;;;;;7.57;72.17;98795.53;5087682;28;20119;-70
2022/02/04 12:44:03;;;;;;;5.72;2.38;;;;;;;7.57;72.94;98785.06;5081523;28;20039;-69
2022/02/04 12:46:31;;;;;;;4.07;2.78;;;;;;;7.50;72.74;98784.53;5085626;28;20040;-68
2022/02/04 12:49:07;;;;;;;3.78;2.30;;;;;;;7.56;73.06;98788.63;5089054;28;20056;-69
2022/02/04 12:54:10;;;;;;;4.65;2.90;;;;;;;7.54;72.27;98772.13;5087041;28;20032;-71
2022/02/04 12:56:54;;;;;;;4.25;2.80;;;;;;;7.55;72.11;98765.09;5077325;28;20082;-69
2022/02/04 13:02:24;;;;;;;5.68;3.42;;;;;;;7.57;71.99;98764.06;5065955;28;20043;-70
2022/02/04 13:07:48;;;;;;;5.72;2.70;;;;;;;7.54;71.27;98764.25;5077176;28;20109;-69
2022/02/04 13:10:23;;;;;;;5.55;3.28;;;;;;;7.59;70.65;98774.50;5083035;28;20028;-69
2022/02/04 13:12:56;;;;;;;6.60;3.42;;;;;;;7.67;70.51;98756.56;5083332;28;20039;-70
2022/02/04 13:15:23;;;;;;;7.18;3.55;;;;;;;7.80;70.06;98754.97;5082513;28;20143;-69
2022/02/04 13:17:49;;;;;;;4.53;3.17;;;;;;;7.83;69.22;98738.22;5082672;28;20054;-70
2022/02/04 13:20:19;;;;;;;3.88;2.70;;;;;;;7.87;69.60;98730.06;5083384;28;20035;-71
2022/02/04 13:22:44;;;;;;;5.05;3.28;;;;;;;7.91;68.96;98726.34;5083336;28;20062;-71
2022/02/04 13:25:15;;;;;;;4.63;2.75;;;;;;;7.95;68.96;98725.25;5082077;28;20032;-70
2022/02/04 13:28:01;;;;;;;3.67;3.08;;;;;;;7.98;68.28;98720.78;5082942;28;20126;-69
2022/02/04 13:30:30;;;;;;;6.25;3.85;;;;;;;7.96;67.98;98703.31;5082486;28;20044;-69
2022/02/04 13:32:56;;;;;;;4.90;3.10;;;;;;;7.96;68.02;98713.81;5082111;28;20035;-68
2022/02/04 13:35:26;;;;;;;5.82;2.78;;;;;;;7.98;67.80;98712.91;5082820;28;20043;-69
2022/02/04 13:37:54;;;;;;;3.40;2.22;;;;;;;7.90;67.58;98708.06;5082938;28;20123;-70
2022/02/04 13:40:28;;;;;;;4.82;3.35;;;;;;;7.94;67.53;98692.06;5081804;28;20047;-69
2022/02/04 13:43:01;;;;;;;4.25;2.90;;;;;;;7.94;67.70;98693.84;5082984;28;20043;-69
2022/02/04 13:45:39;;;;;;;5.72;3.10;;;;;;;7.96;67.24;98690.22;5083123;28;20100;-69
2022/02/04 13:48:19;;;;;;;6.10;3.00;;;;;;;8.03;67.14;98674.97;5064789;28;20040;-69
2022/02/04 13:51:05;;;;;;;13.30;3.17;;;;;;;8.09;66.38;98665.88;5082344;28;20572;-69
2022/02/04 13:53:36;;;;;;;4.25;2.78;;;;;;;8.08;66.99;98665.03;5080655;28;20154;-71
2022/02/04 13:56:29;;;;;;;4.20;2.95;;;;;;;8.07;66.45;98666.00;5082416;28;20042;-70
2022/02/04 13:59:31;;;;;;;4.47;2.70;;;;;;;8.12;66.13;98656.06;5064334;28;20671;-69
2022/02/04 14:02:11;;;;;;;4.32;2.78;;;;;;;8.15;66.36;98649.81;5062348;28;20058;-69
2022/02/04 14:04:36;;;;;;;5.05;2.80;;;;;;;8.01;66.86;98636.63;5083156;28;20032;-69
2022/02/04 14:07:09;;;;;;;5.35;2.60;;;;;;;8.01;66.89;98637.47;5064258;28;20035;-70
2022/02/04 14:09:39;;;;;;;6.10;3.10;;;;;;;8.00;66.16;98640.16;5062752;28;20031;-70
2022/02/04 14:12:19;;;;;;;4.00;2.80;;;;;;;7.88;66.38;98616.31;5082185;28;20044;-70
2022/02/04 14:14:55;;;;;;;4.70;2.75;;;;;;;7.88;66.87;98610.25;5075602;28;20127;-69
2022/02/04 14:17:27;;;;;;;4.60;2.03;;;;;;;7.89;66.08;98622.41;5061880;28;20041;-70
2022/02/04 14:19:52;;;;;;;3.83;2.53;;;;;;;7.87;65.81;98626.91;5078975;28;20032;-70
2022/02/04 14:22:18;;;;;;;9.70;2.90;;;;;;;7.84;65.43;98627.06;5079593;28;20505;-70
2022/02/04 14:24:43;;;;;;;5.05;2.03;;;;;;;7.88;65.89;98615.50;5081024;28;20512;-69
2022/02/04 14:27:09;;;;;;;4.82;2.17;;;;;;;7.91;65.25;98626.63;5080641;28;20034;-70
2022/02/04 14:29:44;;;;;;;4.47;2.10;;;;;;;7.99;65.54;98625.34;5081250;28;20043;-69
2022/02/04 14:32:51;;;;;;;4.40;2.60;;;;;;;7.96;65.58;98616.72;5081793;28;20043;-68
2022/02/04 14:53:59;;;;;;;2.70;1.77;;;;;;;8.07;66.29;98595.13;5107211;28;20027;-69
2022/02/04 15:01:46;;;;;;;3.25;2.00;;;;;;;7.87;69.26;98592.78;5087780;28;20107;-69
2022/02/04 15:04:23;;;;;;;7.32;2.03;;;;;;;7.82;69.79;98594.84;5105580;28;20035;-70
2022/02/04 15:06:57;;;;;;;3.22;1.88;;;;;;;7.70;70.97;98596.38;5108938;28;20428;-71
2022/02/04 15:09:22;;;;;;;9.50;2.55;;;;;;;7.65;72.28;98601.03;5108092;28;20419;-69
2022/02/04 15:11:48;;;;;;;3.38;2.00;;;;;;;7.59;72.53;98591.75;5106362;28;20045;-69
2022/02/04 15:14:15;;;;;;;5.38;2.60;;;;;;;7.51;73.08;98596.56;5097999;28;20058;-70
2022/02/04 15:16:43;;;;;;;7.15;2.10;;;;;;;7.44;74.51;98598.69;5107714;28;20041;-69
2022/02/04 15:19:09;;;;;;;5.15;2.88;;;;;;;7.35;75.14;98603.59;5074681;28;20031;-70
2022/02/04 15:21:34;;;;;;;5.90;2.85;;;;;;;7.24;76.26;98604.19;5088044;28;20780;-69
2022/02/04 15:24:00;;;;;;;6.43;2.10;;;;;;;7.18;77.02;98604.50;5088959;28;20125;-68
2022/02/04 15:26:28;;;;;;;6.10;3.05;;;;;;;7.09;78.10;98606.72;5087045;28;20096;-70
2022/02/04 15:29:04;;;;;;;4.18;2.00;;;;;;;7.03;78.89;98607.03;5105714;28;20034;-69
2022/02/04 15:31:46;;;;;;;;;;;;;;;6.99;79.52;98609.88;5108624;28;20043;-70
2022/02/04 15:34:12;;;;;;;2.67;1.80;;;;;;;6.93;80.16;98608.44;5108061;28;19922;-68
2022/02/04 15:36:44;;;;;;;9.15;2.35;;;;;;;6.85;80.02;98619.34;5108399;28;20043;-69
2022/02/04 15:39:14;;;;;;;6.65;3.08;;;;;;;6.87;80.70;98599.16;5098955;28;20046;-69
2022/02/04 15:41:40;;;;;;;4.65;2.47;;;;;;;6.85;80.11;98600.16;5108821;28;20035;-69
2022/02/04 15:44:36;;;;;;;5.75;2.53;;;;;;;6.86;80.84;98593.97;5108558;28;20038;-69
2022/02/04 15:50:04;;;;;;;4.68;2.38;;;;;;;6.86;80.60;98614.94;5087577;28;20181;-69
2022/02/04 15:52:48;;;;;;;4.05;2.33;;;;;;;6.86;80.78;98615.78;5088776;28;20042;-69
2022/02/04 16:00:50;;;;;;;3.33;2.00;;;;;;;6.93;81.44;98637.25;5107301;28;20131;-68
2022/02/04 16:05:44;;;;;;;4.00;2.72;;;;;;;6.91;82.05;98654.84;5103400;28;20114;-69
2022/02/04 16:08:14;;;;;;;6.70;2.92;;;;;;;6.88;82.29;98653.22;5099847;28;20175;-68
2022/02/04 16:11:15;;;;;;;5.07;2.92;;;;;;;6.85;83.40;98671.72;5084527;28;20093;-70
2022/02/04 16:16:26;;;;;;;4.65;2.38;;;;;;;6.77;84.21;98701.84;5088604;28;20028;-68
2022/02/04 16:19:14;;;;;;;8.90;2.83;;;;;;;6.73;84.83;98709.03;5104616;28;20042;-69
2022/02/04 16:21:47;;;;;;;4.18;2.53;;;;;;;6.68;85.28;98724.13;5105041;28;20110;-69
2022/02/04 16:29:15;;;;;;;5.60;1.60;;;;;;;6.31;80.63;98821.97;5093502;28;20452;-70
2022/02/04 16:31:40;;;;;;;1.92;1.50;;;;;;;6.13;80.32;98850.69;5098902;28;20097;-68
2022/02/04 16:34:09;;;;;;;1.73;1.30;;;;;;;5.96;80.66;98867.16;5105876;28;20024;-69
2022/02/04 16:36:39;;;;;;;2.30;1.83;;;;;;;5.85;80.30;98881.59;5104810;28;20413;-68
2022/02/04 16:39:07;;;;;;;1.75;1.42;;;;;;;5.73;80.64;98891.66;5103836;28;20131;-68
2022/02/04 16:41:46;;;;;;;4.38;1.70;;;;;;;5.60;79.85;98921.91;5094753;28;20496;-68
2022/02/04 16:44:12;;;;;;;3.05;1.95;;;;;;;5.53;79.93;98936.97;5083426;28;20233;-69
2022/02/04 16:46:37;;;;;;;2.45;1.23;;;;;;;5.40;77.22;98948.03;5084740;28;20135;-69
2022/02/04 16:49:04;;;;;;;2.47;1.55;;;;;;;5.31;76.78;98955.31;5085517;28;20032;-69
2022/02/04 16:51:29;;;;;;;5.28;1.80;;;;;;;5.25;76.02;98968.66;5089036;28;20048;-70
2022/02/04 16:53:55;;;;;;;3.10;1.83;;;;;;;5.19;75.51;98978.50;5103833;28;20039;-69
2022/02/04 16:56:20;;;;;;;6.07;3.97;;;;;;;5.14;76.51;98983.91;5105244;27;20036;-68
2022/02/04 16:58:45;;;;;;;7.35;1.70;;;;;;;5.09;76.48;98991.06;5083648;28;20389;-70
2022/02/04 17:01:16;;;;;;;3.05;1.88;;;;;;;5.06;76.85;98993.81;5084522;28;20689;-69
2022/02/04 17:03:41;;;;;;;2.33;1.38;;;;;;;5.02;78.38;99002.69;5086233;28;20043;-69
2022/02/04 17:06:10;;;;;;;7.78;1.90;;;;;;;4.94;79.08;99005.59;5084779;28;20048;-69
2022/02/04 17:08:45;;;;;;;1.98;1.48;;;;;;;4.90;79.73;99023.16;5083865;28;20111;-68
2022/02/04 17:11:13;;;;;;;;;;;;;;;4.89;79.86;99038.88;5083151;28;20748;-69
2022/02/04 17:13:39;;;;;;;3.25;2.10;;;;;;;4.86;80.54;99047.66;5103691;28;19908;-68
2022/02/04 17:16:05;;;;;;;4.85;2.35;;;;;;;4.82;80.22;99056.53;5102171;28;20039;-69
2022/02/04 17:18:31;;;;;;;4.65;1.98;;;;;;;4.84;80.62;99065.16;5103346;28;20059;-68
2022/02/04 17:20:57;;;;;;;3.00;1.88;;;;;;;4.80;80.09;99078.38;5104105;28;20032;-68
2022/02/04 17:23:32;;;;;;;3.00;1.88;;;;;;;4.79;80.24;99080.16;5103434;28;20027;-70
2022/02/04 17:26:01;;;;;;;2.47;1.70;;;;;;;4.76;79.44;99087.25;5102569;28;20032;-69
2022/02/04 17:28:29;;;;;;;3.30;2.00;;;;;;;4.78;80.12;99103.72;5102045;28;20127;-69
2022/02/04 17:30:56;;;;;;;2.80;2.08;;;;;;;4.76;79.77;99113.38;5094920;27;20056;-69
2022/02/04 17:33:23;;;;;;;2.28;2.03;;;;;;;4.72;79.99;99123.06;5088897;28;20556;-67
2022/02/04 17:35:49;;;;;;;3.42;2.40;;;;;;;4.61;80.70;99118.22;5065546;28;20032;-69
2022/02/04 17:38:14;;;;;;;3.50;2.75;;;;;;;4.54;80.97;99140.22;5080788;28;20646;-67
2022/02/04 17:40:40;;;;;;;5.10;3.90;;;;;;;4.53;82.18;99148.97;5086292;28;20032;-69
2022/02/04 17:43:06;;;;;;;5.55;3.22;;;;;;;4.28;81.33;99169.81;5081172;28;20043;-68
2022/02/04 17:45:32;;;;;;;5.20;3.03;;;;;;;4.16;81.20;99186.75;5085838;28;20048;-68
2022/02/04 17:48:10;;;;;;;3.90;2.90;;;;;;;4.09;82.24;99191.31;5094663;28;20652;-70
2022/02/04 17:50:49;;;;;;;5.30;3.47;;;;;;;4.02;82.71;99192.41;5094317;28;20569;-69
2022/02/04 17:53:20;;;;;;;5.93;3.90;;;;;;;4.05;81.95;99214.94;5087134;28;20071;-68
2022/02/04 17:55:53;;;;;;;4.32;3.53;;;;;;;4.06;82.28;99207.06;5100149;28;20416;-68
2022/02/04 17:58:27;;;;;;;9.90;4.03;;;;;;;4.08;80.69;99215.66;5102557;28;20447;-68
2022/02/04 18:08:31;;;;;;;5.20;3.83;;;;;;;4.20;79.90;99229.22;5102080;28;22934;-69
2022/02/04 18:11:01;;;;;;;5.82;3.95;;;;;;;4.18;79.04;99238.84;5092611;28;20052;-71
2022/02/04 18:13:27;;;;;;;12.02;5.53;;;;;;;4.18;79.11;99247.53;5097270;28;20035;-69
2022/02/04 18:15:54;;;;;;;7.63;3.85;;;;;;;4.19;79.61;99254.47;5083880;28;20042;-69
2022/02/04 18:18:23;;;;;;;7.53;4.00;;;;;;;4.18;79.09;99262.34;5101728;28;20040;-68
2022/02/04 18:20:49;;;;;;;7.88;3.60;;;;;;;4.19;78.83;99275.34;5092581;27;20032;-68
2022/02/04 18:23:19;;;;;;;9.98;3.97;;;;;;;4.19;78.36;99277.94;5083767;28;20028;-67
2022/02/04 18:25:45;;;;;;;9.10;4.57;;;;;;;4.20;78.53;99287.47;5086435;28;20047;-68
2022/02/04 18:28:11;;;;;;;11.10;4.38;;;;;;;4.19;78.30;99295.38;5085124;28;20449;-68
2022/02/04 18:30:37;;;;;;;9.55;3.83;;;;;;;4.20;78.30;99291.84;5093765;28;20123;-68
2022/02/04 18:33:03;;;;;;;8.07;3.67;;;;;;;4.20;78.37;99299.66;5101741;28;20118;-68
2022/02/04 18:35:30;;;;;;;9.05;3.95;;;;;;;4.22;77.54;99316.97;5102260;28;20067;-68
2022/02/04 18:45:56;;;;;;;5.78;3.67;;;;;;;4.23;78.32;99336.09;5081096;28;20059;-68
2022/02/04 18:48:24;;;;;;;7.28;3.80;;;;;;;4.22;77.72;99343.06;5083069;28;20047;-68
2022/02/04 18:58:26;;;;;;;12.55;3.50;;;;;;;4.10;77.21;99353.88;5088324;28;20036;-68
2022/02/04 19:00:54;;;;;;;4.93;3.45;;;;;;;4.03;76.87;99361.03;5098626;28;20429;-68
2022/02/04 19:03:25;;;;;;;12.57;3.60;;;;;;;3.98;76.64;99360.31;5103610;28;20541;-69
2022/02/04 19:06:36;;;;;;;10.60;3.97;;;;;;;3.96;77.21;99363.84;5105709;28;20086;-68
2022/02/04 19:08:50;;;;;;;7.25;3.10;;;;;;;3.94;77.25;99378.69;5081652;28;20472;-69
2022/02/04 19:11:21;;;;;;;10.90;4.18;;;;;;;3.88;77.05;99379.72;5102151;28;20127;-68
2022/02/04 19:13:59;;;;;;;9.85;3.83;;;;;;;3.87;77.53;99388.47;5106283;28;20081;-69
2022/02/04 19:21:38;;;;;;;13.02;4.07;;;;;;;3.74;76.72;99372.31;5106348;28;20063;-68
2022/02/04 19:24:04;;;;;;;16.17;4.60;;;;;;;3.75;77.59;99388.81;5107166;28;20076;-68
2022/02/04 19:26:29;;;;;;;11.30;5.07;;;;;;;3.75;77.79;99386.19;5106790;28;20043;-68
2022/02/04 19:28:55;;;;;;;15.15;8.00;;;;;;;3.70;77.82;99388.94;5107736;28;20042;-69
2022/02/04 19:31:21;;;;;;;11.90;5.28;;;;;;;3.65;78.13;99391.66;5099576;28;20142;-69
2022/02/04 19:33:48;;;;;;;10.43;4.65;;;;;;;3.59;78.18;99386.63;5068575;28;20044;-68
2022/02/04 19:36:14;;;;;;;12.75;4.75;;;;;;;3.59;78.50;99386.63;5083017;28;20039;-69
2022/02/04 19:38:40;;;;;;;10.70;4.75;;;;;;;3.61;78.63;99389.16;5095546;28;20040;-70
2022/02/04 19:41:11;;;;;;;10.90;6.82;;;;;;;3.62;78.63;99386.53;5087544;28;20044;-70
2022/02/04 19:43:37;;;;;;;13.27;4.93;;;;;;;3.63;78.68;99388.22;5085469;28;20086;-68
2022/02/04 19:46:12;;;;;;;9.32;4.65;;;;;;;3.62;78.91;99390.91;5085009;28;20039;-68
2022/02/04 19:48:47;;;;;;;;;;;;;;;3.59;78.89;99410.09;5066191;28;20093;-68
2022/02/04 20:07:37;;;;;;;7.57;4.47;;;;;;;3.62;78.35;99415.22;5105269;28;20403;-67
2022/02/04 20:25:59;;;;;;;15.75;4.70;;;;;;;3.70;77.32;99428.03;5084138;28;20024;-68
2022/02/04 20:28:25;;;;;;;13.13;6.13;;;;;;;3.69;77.40;99433.28;5082479;28;20081;-68
2022/02/04 20:30:51;;;;;;;10.75;3.88;;;;;;;3.65;77.47;99433.38;5080053;28;20052;-70
2022/02/04 20:33:17;;;;;;;11.35;4.75;;;;;;;3.68;77.93;99448.06;5085000;28;20055;-69
2022/02/04 20:35:43;;;;;;;7.80;4.22;;;;;;;3.71;78.07;99444.53;5083403;28;20035;-69
2022/02/04 20:38:14;;;;;;;9.10;4.35;;;;;;;3.68;77.61;99442.00;5101567;28;20039;-69
2022/02/04 20:40:40;;;;;;;7.93;4.82;;;;;;;3.68;77.78;99442.00;5104383;28;20040;-69
2022/02/04 20:43:05;;;;;;;17.77;5.53;;;;;;;3.69;77.71;99446.31;5104196;28;20028;-69
2022/02/04 20:45:32;;;;;;;12.60;4.88;;;;;;;3.65;77.61;99443.78;5104186;28;20039;-67
2022/02/04 20:47:58;;;;;;;13.20;6.47;;;;;;;3.62;78.32;99448.25;5101026;28;20152;-67
2022/02/04 20:50:25;;;;;;;10.82;4.00;;;;;;;3.59;77.97;99449.19;5101225;28;20134;-68
2022/02/04 20:52:52;;;;;;;8.82;4.43;;;;;;;3.56;77.62;99437.97;5080172;28;20413;-69
2022/02/04 20:55:18;;;;;;;14.30;5.55;;;;;;;3.56;77.84;99456.22;5084271;28;20439;-68
2022/02/04 20:57:47;;;;;;;10.55;5.25;;;;;;;3.51;78.00;99452.88;5082935;28;20032;-69
2022/02/04 21:00:26;;;;;;;10.65;5.07;;;;;;;3.48;78.07;99468.59;5101089;28;20039;-68
2022/02/04 21:02:53;;;;;;;15.07;4.88;;;;;;;3.47;78.49;99466.84;5082331;28;20693;-67
2022/02/04 21:05:20;;;;;;;11.85;5.00;;;;;;;3.42;78.36;99467.84;5081958;28;20040;-69
2022/02/04 21:15:41;;;;;;;11.43;4.93;;;;;;;3.44;78.79;99486.03;5086973;28;20039;-68
2022/02/04 21:18:07;;;;;;;11.23;5.32;;;;;;;3.44;78.38;99481.66;5087526;27;20025;-67
2022/02/04 21:20:32;;;;;;;16.10;6.43;;;;;;;3.45;78.03;99479.94;5064887;28;20671;-67
2022/02/04 21:22:58;;;;;;;19.55;7.63;;;;;;;3.46;78.35;99492.06;5088069;28;20085;-68
2022/02/04 21:25:24;;;;;;;14.88;5.38;;;;;;;3.43;78.30;99498.22;5103764;28;20055;-68
2022/02/04 21:27:51;;;;;;;13.18;5.75;;;;;;;3.41;78.02;99492.19;5102560;28;20112;-68
2022/02/04 21:30:19;;;;;;;15.27;6.32;;;;;;;3.40;77.84;99497.44;5098578;28;20524;-68
2022/02/04 21:32:50;;;;;;;13.15;5.90;;;;;;;3.40;77.88;99503.50;5086550;28;20432;-67
2022/02/04 21:37:59;;;;;;;13.07;6.95;;;;;;;3.44;78.36;99514.69;5102744;28;20158;-68
2022/02/04 21:40:30;;;;;;;13.38;5.82;;;;;;;3.44;77.91;99510.34;5102621;28;20127;-68
2022/02/04 21:42:55;;;;;;;15.57;5.35;;;;;;;3.48;77.75;99521.56;5084483;28;20024;-68
2022/02/04 21:45:22;;;;;;;18.70;5.70;;;;;;;3.48;77.43;99513.75;5102510;28;20062;-68
2022/02/04 21:47:51;;;;;;;13.30;7.07;;;;;;;3.49;77.25;99507.63;5102841;28;20047;-67
2022/02/04 21:50:18;;;;;;;13.57;6.45;;;;;;;3.50;77.12;99511.97;5102634;28;20220;-67
2022/02/04 21:52:44;;;;;;;16.00;8.50;;;;;;;3.53;76.90;99518.84;5100839;28;20065;-68
2022/02/04 21:55:12;;;;;;;12.38;5.38;;;;;;;3.55;77.04;99530.09;5102589;28;20644;-68
2022/02/04 21:57:38;;;;;;;11.40;6.22;;;;;;;3.56;77.39;99526.56;5103302;28;20063;-68
2022/02/04 22:00:07;;;;;;;11.80;5.80;;;;;;;3.60;77.08;99529.06;5103021;28;20055;-68
2022/02/04 22:02:33;;;;;;;14.15;6.15;;;;;;;3.60;76.58;99523.84;5082879;28;20035;-67
2022/02/04 22:05:01;;;;;;;11.23;5.53;;;;;;;3.61;77.36;99536.00;5101513;28;20038;-67
2022/02/04 22:07:32;;;;;;;11.82;5.10;;;;;;;3.60;76.34;99544.72;5084501;28;20063;-68
2022/02/04 22:10:24;;;;;;;11.38;5.18;;;;;;;3.63;76.57;99542.03;5082070;28;20032;-68
2022/02/04 22:23:36;;;;;;;15.07;5.53;;;;;;;3.72;76.78;99568.78;5090340;28;20058;-68
2022/02/04 22:26:02;;;;;;;14.43;5.40;;;;;;;3.71;76.92;99564.44;5081681;28;20089;-68
2022/02/04 22:28:30;;;;;;;10.85;5.80;;;;;;;3.68;76.95;99565.38;5084369;28;20043;-69
2022/02/04 22:30:56;;;;;;;17.25;6.63;;;;;;;3.68;77.18;99560.16;5099776;28;20032;-68
2022/02/04 22:33:26;;;;;;;12.60;5.18;;;;;;;3.70;77.14;99567.94;5103488;28;20108;-68
2022/02/04 22:43:56;;;;;;;8.95;4.20;;;;;;;3.67;76.76;99587.13;5104625;28;20416;-68
2022/02/04 22:54:19;;;;;;;10.65;4.38;;;;;;;3.60;77.01;99615.09;5101899;28;20549;-68
2022/02/04 22:57:02;;;;;;;9.05;4.72;;;;;;;3.59;77.37;99628.16;5101049;28;20084;-67
2022/02/04 22:59:28;;;;;;;13.18;5.13;;;;;;;3.60;77.63;99625.50;5101304;28;20096;-69
2022/02/04 23:01:57;;;;;;;8.05;4.40;;;;;;;3.62;77.48;99631.56;5103903;28;20028;-69
2022/02/04 23:04:25;;;;;;;10.98;5.20;;;;;;;3.61;77.37;99628.97;5102161;28;20036;-68
2022/02/04 23:07:00;;;;;;;6.53;4.32;;;;;;;3.59;77.88;99635.97;5091431;28;20134;-69
2022/02/04 23:09:42;;;;;;;15.32;6.28;;;;;;;3.55;77.86;99632.59;5101880;28;20039;-68
2022/02/04 23:12:09;;;;;;;9.95;4.97;;;;;;;3.53;78.40;99644.78;5101964;28;20060;-68
2022/02/04 23:17:23;;;;;;;9.63;4.68;;;;;;;3.49;78.43;99637.94;5105533;28;20039;-68
2022/02/04 23:19:59;;;;;;;;;;;;;;;3.43;78.32;99640.69;5106769;28;20647;-68
2022/02/04 23:22:31;;;;;;;9.15;4.20;;;;;;;3.40;78.31;99643.38;5089349;28;20007;-67
2022/02/04 23:27:50;;;;;;;13.65;4.10;;;;;;;3.33;78.58;99644.38;5101874;28;20420;-68
2022/02/04 23:33:07;;;;;;;7.55;3.72;;;;;;;3.27;78.56;99657.53;5106383;28;20035;-66
2022/02/04 23:51:57;;;;;;;10.35;3.97;;;;;;;3.33;78.07;99673.91;5093317;28;20046;-68
2022/02/04 23:54:25;;;;;;;6.22;3.25;;;;;;;3.34;78.21;99678.22;5087721;28;20040;-68
2022/02/04 23:56:52;;;;;;;8.02;3.78;;;;;;;3.34;78.35;99675.59;5090576;28;20047;-67
